createdAt,value
2017-04-07T00:00:15.204Z,9.74
2017-04-07T00:00:55.764Z,9.68
2017-04-07T00:01:36.365Z,9.76
2017-04-07T00:02:16.957Z,9.59
2017-04-07T00:02:57.519Z,9.69
2017-04-07T00:03:38.111Z,9.77
2017-04-07T00:04:18.676Z,9.69
2017-04-07T00:04:59.255Z,9.72
2017-04-07T00:05:39.826Z,9.61
2017-04-07T00:06:20.406Z,9.58
2017-04-07T00:07:00.968Z,9.48
2017-04-07T00:07:41.553Z,9.54
2017-04-07T00:08:22.133Z,9.55
2017-04-07T00:09:02.725Z,9.48
2017-04-07T00:09:43.304Z,9.48
2017-04-07T00:10:23.888Z,9.48
2017-04-07T00:11:04.474Z,9.47
2017-04-07T00:11:45.080Z,9.54
2017-04-07T00:12:25.635Z,9.4
2017-04-07T00:13:06.206Z,9.5
2017-04-07T00:13:46.794Z,9.46
2017-04-07T00:14:27.383Z,9.5
2017-04-07T00:15:07.946Z,9.48
2017-04-07T00:15:48.543Z,9.44
2017-04-07T00:16:29.118Z,9.44
2017-04-07T00:17:09.712Z,9.5
2017-04-07T00:17:50.303Z,9.55
2017-04-07T00:18:30.895Z,9.46
2017-04-07T00:19:11.469Z,9.48
2017-04-07T00:19:52.058Z,9.56
2017-04-07T00:20:32.638Z,9.48
2017-04-07T00:21:13.220Z,9.54
2017-04-07T00:21:53.799Z,9.54
2017-04-07T00:22:34.382Z,9.48
2017-04-07T00:23:15.008Z,9.51
2017-04-07T00:23:55.559Z,9.51
2017-04-07T00:24:36.131Z,9.46
2017-04-07T00:25:16.717Z,9.44
2017-04-07T00:25:57.311Z,9.46
2017-04-07T00:26:37.901Z,9.47
2017-04-07T00:27:18.477Z,9.47
2017-04-07T00:27:59.097Z,9.51
2017-04-07T00:28:39.653Z,9.44
2017-04-07T00:29:20.234Z,9.48
2017-04-07T00:30:00.844Z,9.41
2017-04-07T00:30:41.450Z,9.41
2017-04-07T00:31:22.087Z,9.37
2017-04-07T00:32:02.699Z,9.46
2017-04-07T00:32:43.302Z,9.44
2017-04-07T00:33:23.918Z,9.41
2017-04-07T00:34:04.489Z,9.41
2017-04-07T00:34:45.077Z,9.36
2017-04-07T00:35:25.664Z,9.32
2017-04-07T00:36:06.241Z,9.41
2017-04-07T00:36:46.818Z,9.39
2017-04-07T00:37:27.398Z,9.41
2017-04-07T00:38:07.994Z,9.34
2017-04-07T00:38:48.571Z,9.39
2017-04-07T00:39:29.146Z,9.36
2017-04-07T00:40:09.723Z,9.32
2017-04-07T00:40:50.291Z,9.37
2017-04-07T00:41:30.863Z,9.37
2017-04-07T00:42:11.442Z,9.36
2017-04-07T00:42:52.024Z,9.37
2017-04-07T00:43:32.588Z,9.34
2017-04-07T00:44:13.172Z,9.37
2017-04-07T00:44:53.760Z,9.36
2017-04-07T00:45:34.316Z,9.34
2017-04-07T00:46:14.911Z,9.39
2017-04-07T00:46:55.473Z,9.32
2017-04-07T00:47:36.047Z,9.34
2017-04-07T00:48:16.635Z,9.37
2017-04-07T00:48:57.224Z,9.37
2017-04-07T00:49:37.806Z,9.4
2017-04-07T00:50:18.412Z,9.37
2017-04-07T00:50:58.979Z,9.34
2017-04-07T00:51:39.558Z,9.32
2017-04-07T00:52:20.137Z,9.37
2017-04-07T00:53:00.712Z,9.37
2017-04-07T00:53:47.945Z,9.37
2017-04-07T00:54:28.508Z,9.26
2017-04-07T00:55:09.084Z,9.32
2017-04-07T00:55:49.668Z,9.37
2017-04-07T00:56:30.265Z,9.29
2017-04-07T00:57:10.819Z,9.28
2017-04-07T00:57:51.456Z,9.34
2017-04-07T00:58:32.025Z,9.37
2017-04-07T00:59:12.610Z,9.28
2017-04-07T00:59:53.213Z,9.26
2017-04-07T01:00:33.802Z,9.31
2017-04-07T01:01:14.394Z,9.34
2017-04-07T01:01:54.967Z,9.26
2017-04-07T01:02:35.606Z,9.23
2017-04-07T01:03:16.169Z,9.23
2017-04-07T01:03:56.757Z,9.25
2017-04-07T01:04:37.336Z,9.23
2017-04-07T01:05:17.911Z,9.26
2017-04-07T01:05:58.492Z,9.23
2017-04-07T01:06:39.066Z,9.16
2017-04-07T01:07:19.627Z,9.16
2017-04-07T01:08:00.198Z,9.22
2017-04-07T01:08:40.786Z,9.23
2017-04-07T01:09:21.393Z,9.16
2017-04-07T01:10:01.965Z,9.19
2017-04-07T01:10:42.549Z,9.22
2017-04-07T01:11:23.136Z,9.16
2017-04-07T01:12:03.732Z,9.16
2017-04-07T01:12:44.297Z,9.18
2017-04-07T01:13:24.895Z,9.29
2017-04-07T01:14:05.486Z,9.22
2017-04-07T01:14:46.097Z,9.18
2017-04-07T01:15:26.684Z,9.22
2017-04-07T01:16:07.280Z,9.29
2017-04-07T01:16:47.858Z,9.26
2017-04-07T01:17:28.452Z,9.26
2017-04-07T01:18:09.017Z,9.26
2017-04-07T01:18:49.595Z,9.21
2017-04-07T01:19:30.166Z,9.25
2017-04-07T01:20:10.725Z,9.19
2017-04-07T01:20:51.297Z,9.22
2017-04-07T01:21:31.871Z,9.25
2017-04-07T01:22:12.473Z,9.28
2017-04-07T01:22:53.059Z,9.19
2017-04-07T01:23:33.662Z,9.25
2017-04-07T01:24:14.237Z,9.22
2017-04-07T01:24:54.813Z,9.16
2017-04-07T01:25:35.408Z,9.25
2017-04-07T01:26:16.016Z,9.14
2017-04-07T01:26:56.602Z,9.28
2017-04-07T01:27:37.173Z,9.18
2017-04-07T01:28:17.748Z,9.19
2017-04-07T01:28:58.333Z,9.22
2017-04-07T01:29:38.898Z,9.26
2017-04-07T01:30:19.467Z,9.21
2017-04-07T01:31:00.044Z,9.18
2017-04-07T01:31:40.615Z,9.13
2017-04-07T01:32:21.186Z,9.25
2017-04-07T01:33:01.760Z,9.22
2017-04-07T01:33:42.340Z,9.18
2017-04-07T01:34:22.908Z,9.31
2017-04-07T01:35:03.478Z,9.29
2017-04-07T01:35:44.074Z,9.25
2017-04-07T01:36:24.635Z,9.18
2017-04-07T01:37:05.195Z,9.32
2017-04-07T01:37:45.785Z,9.19
2017-04-07T01:38:26.393Z,9.31
2017-04-07T01:39:06.989Z,9.26
2017-04-07T01:39:47.565Z,9.31
2017-04-07T01:40:28.142Z,9.31
2017-04-07T01:41:08.712Z,9.34
2017-04-07T01:41:49.294Z,9.37
2017-04-07T01:42:29.862Z,9.39
2017-04-07T01:43:10.446Z,9.4
2017-04-07T01:43:51.026Z,9.31
2017-04-07T01:44:31.594Z,9.34
2017-04-07T01:45:12.163Z,9.39
2017-04-07T01:45:52.734Z,9.34
2017-04-07T01:46:33.311Z,9.36
2017-04-07T01:47:13.894Z,9.37
2017-04-07T01:47:54.472Z,9.39
2017-04-07T01:48:35.049Z,9.37
2017-04-07T01:49:15.614Z,9.34
2017-04-07T01:49:56.191Z,9.29
2017-04-07T01:50:36.764Z,9.26
2017-04-07T01:51:17.338Z,9.23
2017-04-07T01:51:57.910Z,9.26
2017-04-07T01:52:38.495Z,9.19
2017-04-07T01:53:19.048Z,9.19
2017-04-07T01:53:59.617Z,9.14
2017-04-07T01:54:40.188Z,9.21
2017-04-07T01:55:20.767Z,9.22
2017-04-07T01:56:01.338Z,9.28
2017-04-07T01:56:41.924Z,9.21
2017-04-07T01:57:22.534Z,9.23
2017-04-07T01:58:03.175Z,9.23
2017-04-07T01:58:43.736Z,9.29
2017-04-07T01:59:24.311Z,9.26
2017-04-07T02:00:04.888Z,9.26
2017-04-07T02:00:45.478Z,9.26
2017-04-07T02:01:26.064Z,9.31
2017-04-07T02:02:06.642Z,9.28
2017-04-07T02:02:47.249Z,9.28
2017-04-07T02:03:27.816Z,9.28
2017-04-07T02:04:08.401Z,9.25
2017-04-07T02:04:48.964Z,9.29
2017-04-07T02:05:29.549Z,9.34
2017-04-07T02:06:10.164Z,9.22
2017-04-07T02:06:50.755Z,9.26
2017-04-07T02:07:31.335Z,9.32
2017-04-07T02:08:11.913Z,9.28
2017-04-07T02:08:52.534Z,9.32
2017-04-07T02:09:33.094Z,9.36
2017-04-07T02:10:13.672Z,9.39
2017-04-07T02:10:54.255Z,9.32
2017-04-07T02:11:34.835Z,9.31
2017-04-07T02:12:15.428Z,9.19
2017-04-07T02:12:56.031Z,9.21
2017-04-07T02:13:36.626Z,9.18
2017-04-07T02:14:17.221Z,9.23
2017-04-07T02:14:57.799Z,9.21
2017-04-07T02:15:38.428Z,9.23
2017-04-07T02:16:19.005Z,9.26
2017-04-07T02:16:59.603Z,9.18
2017-04-07T02:17:40.186Z,9.14
2017-04-07T02:18:20.770Z,9.22
2017-04-07T02:19:01.347Z,9.23
2017-04-07T02:19:41.918Z,9.22
2017-04-07T02:20:22.535Z,9.1
2017-04-07T02:21:03.128Z,9.14
2017-04-07T02:21:43.693Z,9.16
2017-04-07T02:22:24.274Z,9.16
2017-04-07T02:23:04.891Z,9.11
2017-04-07T02:23:45.476Z,9.16
2017-04-07T02:24:26.095Z,9.16
2017-04-07T02:25:06.684Z,9.21
2017-04-07T02:25:47.266Z,9.16
2017-04-07T02:26:27.849Z,9.26
2017-04-07T02:27:08.424Z,9.11
2017-04-07T02:27:48.997Z,9.26
2017-04-07T02:28:29.645Z,9.21
2017-04-07T02:29:10.209Z,9.25
2017-04-07T02:29:50.826Z,9.22
2017-04-07T02:30:31.388Z,9.14
2017-04-07T02:31:11.971Z,9.23
2017-04-07T02:31:52.547Z,9.21
2017-04-07T02:32:33.135Z,9.21
2017-04-07T02:33:13.742Z,9.18
2017-04-07T02:33:54.303Z,9.14
2017-04-07T02:34:34.891Z,9.16
2017-04-07T02:35:15.540Z,9.23
2017-04-07T02:35:56.124Z,9.13
2017-04-07T02:36:36.702Z,9.06
2017-04-07T02:37:17.287Z,9.13
2017-04-07T02:37:57.872Z,9.06
2017-04-07T02:38:38.455Z,8.95
2017-04-07T02:39:19.037Z,8.99
2017-04-07T02:39:59.627Z,8.99
2017-04-07T02:40:40.209Z,8.97
2017-04-07T02:41:20.797Z,8.97
2017-04-07T02:42:01.368Z,9.08
2017-04-07T02:42:41.968Z,9.02
2017-04-07T02:43:22.558Z,9.1
2017-04-07T02:44:03.079Z,9.08
2017-04-07T02:44:43.652Z,9.1
2017-04-07T02:45:24.242Z,9.16
2017-04-07T02:46:04.821Z,9.08
2017-04-07T02:46:45.398Z,9.08
2017-04-07T02:47:25.957Z,9.13
2017-04-07T02:48:06.542Z,9.06
2017-04-07T02:48:47.142Z,9.18
2017-04-07T02:49:27.727Z,9.22
2017-04-07T02:50:08.280Z,9.22
2017-04-07T02:50:48.917Z,9.11
2017-04-07T02:51:29.472Z,9.11
2017-04-07T02:52:10.057Z,9.19
2017-04-07T02:52:50.669Z,9.11
2017-04-07T02:53:31.260Z,9.11
2017-04-07T02:54:11.834Z,9.11
2017-04-07T02:54:52.409Z,9.1
2017-04-07T02:55:32.991Z,9.1
2017-04-07T02:56:13.570Z,9.13
2017-04-07T02:56:54.163Z,9.11
2017-04-07T02:57:34.749Z,9.06
2017-04-07T02:58:15.318Z,9.11
2017-04-07T02:58:55.897Z,9.02
2017-04-07T02:59:36.485Z,9.04
2017-04-07T03:00:17.087Z,9.1
2017-04-07T03:00:57.664Z,9.13
2017-04-07T03:01:38.241Z,9.1
2017-04-07T03:02:18.841Z,9.16
2017-04-07T03:02:59.444Z,9.08
2017-04-07T03:03:39.999Z,9.06
2017-04-07T03:04:20.597Z,9.06
2017-04-07T03:05:01.187Z,9.06
2017-04-07T03:05:41.763Z,9.14
2017-04-07T03:06:22.374Z,9.14
2017-04-07T03:07:02.974Z,9.18
2017-04-07T03:07:43.572Z,9.21
2017-04-07T03:08:24.143Z,9.19
2017-04-07T03:09:04.716Z,9.22
2017-04-07T03:09:45.324Z,9.22
2017-04-07T03:10:25.924Z,9.21
2017-04-07T03:11:06.509Z,9.19
2017-04-07T03:11:47.107Z,9.13
2017-04-07T03:12:27.687Z,9.13
2017-04-07T03:13:08.264Z,9.14
2017-04-07T03:13:48.864Z,9.02
2017-04-07T03:14:29.455Z,9.11
2017-04-07T03:15:10.071Z,9.08
2017-04-07T03:15:50.615Z,8.95
2017-04-07T03:16:31.185Z,8.94
2017-04-07T03:17:11.770Z,8.95
2017-04-07T03:17:52.370Z,8.97
2017-04-07T03:18:33.092Z,8.99
2017-04-07T03:19:13.673Z,8.97
2017-04-07T03:19:54.294Z,9.06
2017-04-07T03:20:34.881Z,8.92
2017-04-07T03:21:15.461Z,8.97
2017-04-07T03:21:56.046Z,9.02
2017-04-07T03:22:36.612Z,8.85
2017-04-07T03:23:17.211Z,8.95
2017-04-07T03:23:57.773Z,8.97
2017-04-07T03:24:38.371Z,8.95
2017-04-07T03:25:18.951Z,8.92
2017-04-07T03:25:59.579Z,8.97
2017-04-07T03:26:40.146Z,8.97
2017-04-07T03:27:20.715Z,8.99
2017-04-07T03:28:01.286Z,9
2017-04-07T03:28:41.859Z,9
2017-04-07T03:29:22.451Z,9.06
2017-04-07T03:30:03.066Z,9.13
2017-04-07T03:30:43.630Z,9.16
2017-04-07T03:31:24.230Z,9.04
2017-04-07T03:32:04.826Z,8.99
2017-04-07T03:32:45.413Z,8.99
2017-04-07T03:33:26.006Z,9.02
2017-04-07T03:34:06.578Z,9.16
2017-04-07T03:34:47.160Z,9.03
2017-04-07T03:35:27.730Z,9.11
2017-04-07T03:36:08.307Z,9.11
2017-04-07T03:36:48.874Z,9.11
2017-04-07T03:37:29.468Z,9.14
2017-04-07T03:38:10.040Z,9.11
2017-04-07T03:38:50.604Z,9.08
2017-04-07T03:39:31.211Z,9.16
2017-04-07T03:40:11.797Z,8.99
2017-04-07T03:40:52.362Z,9.14
2017-04-07T03:41:32.958Z,9.1
2017-04-07T03:42:13.555Z,9.11
2017-04-07T03:42:54.149Z,9.13
2017-04-07T03:43:34.713Z,9.04
2017-04-07T03:44:15.283Z,8.99
2017-04-07T03:44:55.873Z,8.99
2017-04-07T03:45:36.448Z,9.13
2017-04-07T03:46:16.998Z,9.06
2017-04-07T03:46:57.579Z,9.14
2017-04-07T03:47:38.159Z,9.11
2017-04-07T03:48:18.734Z,9.1
2017-04-07T03:48:59.378Z,9.06
2017-04-07T03:49:39.968Z,9.08
2017-04-07T03:50:20.562Z,9.13
2017-04-07T03:51:01.142Z,9.13
2017-04-07T03:51:41.716Z,9.1
2017-04-07T03:52:22.312Z,9.1
2017-04-07T03:53:02.884Z,9.14
2017-04-07T03:53:43.473Z,9.03
2017-04-07T03:54:24.077Z,9
2017-04-07T03:55:04.671Z,9.04
2017-04-07T03:55:45.246Z,8.95
2017-04-07T03:56:25.848Z,9.11
2017-04-07T03:57:06.426Z,8.97
2017-04-07T03:57:47.002Z,9.08
2017-04-07T03:58:27.574Z,9.03
2017-04-07T03:59:08.161Z,9.04
2017-04-07T03:59:48.727Z,9
2017-04-07T04:00:29.328Z,8.99
2017-04-07T04:01:09.916Z,8.94
2017-04-07T04:01:50.493Z,8.95
2017-04-07T04:02:31.072Z,9.11
2017-04-07T04:03:11.650Z,8.95
2017-04-07T04:03:52.228Z,9.16
2017-04-07T04:04:32.828Z,9.13
2017-04-07T04:05:13.481Z,9.11
2017-04-07T04:05:54.083Z,9.1
2017-04-07T04:06:34.688Z,9.1
2017-04-07T04:07:15.267Z,9.13
2017-04-07T04:07:55.880Z,9.1
2017-04-07T04:08:36.456Z,9.13
2017-04-07T04:09:17.036Z,9
2017-04-07T04:09:57.609Z,8.99
2017-04-07T04:10:38.192Z,9.02
2017-04-07T04:11:18.788Z,8.97
2017-04-07T04:11:59.493Z,8.95
2017-04-07T04:12:40.071Z,9.02
2017-04-07T04:13:20.653Z,8.99
2017-04-07T04:14:01.260Z,9.02
2017-04-07T04:14:41.843Z,8.97
2017-04-07T04:15:22.425Z,9.13
2017-04-07T04:16:03.073Z,9.02
2017-04-07T04:16:43.626Z,8.97
2017-04-07T04:17:24.212Z,8.97
2017-04-07T04:18:04.907Z,8.97
2017-04-07T04:18:45.501Z,9.04
2017-04-07T04:19:26.083Z,9.04
2017-04-07T04:20:06.674Z,9.02
2017-04-07T04:20:47.249Z,9.14
2017-04-07T04:21:27.836Z,9.16
2017-04-07T04:22:08.421Z,9.11
2017-04-07T04:22:49.009Z,9.06
2017-04-07T04:23:29.582Z,9.13
2017-04-07T04:24:10.167Z,8.99
2017-04-07T04:24:50.741Z,8.99
2017-04-07T04:25:31.330Z,8.99
2017-04-07T04:26:11.937Z,9
2017-04-07T04:26:52.520Z,9.11
2017-04-07T04:27:33.117Z,8.97
2017-04-07T04:28:13.742Z,9.14
2017-04-07T04:28:54.349Z,9.11
2017-04-07T04:29:34.886Z,9.1
2017-04-07T04:30:15.470Z,9.11
2017-04-07T04:30:56.156Z,9.1
2017-04-07T04:31:36.743Z,9.06
2017-04-07T04:32:17.317Z,9.13
2017-04-07T04:32:57.902Z,9.13
2017-04-07T04:33:38.595Z,9.14
2017-04-07T04:34:19.177Z,9.08
2017-04-07T04:34:59.766Z,9.11
2017-04-07T04:35:40.333Z,9.11
2017-04-07T04:36:20.938Z,9.14
2017-04-07T04:37:01.668Z,9.06
2017-04-07T04:37:42.262Z,9.13
2017-04-07T04:38:22.871Z,9.02
2017-04-07T04:39:03.436Z,8.99
2017-04-07T04:39:44.009Z,8.94
2017-04-07T04:40:24.695Z,8.95
2017-04-07T04:41:05.337Z,8.99
2017-04-07T04:41:45.977Z,8.94
2017-04-07T04:42:26.530Z,9
2017-04-07T04:43:07.124Z,8.97
2017-04-07T04:43:47.701Z,8.94
2017-04-07T04:44:28.285Z,8.92
2017-04-07T04:45:08.859Z,8.94
2017-04-07T04:45:49.453Z,9.02
2017-04-07T04:46:30.034Z,8.87
2017-04-07T04:47:10.598Z,9
2017-04-07T04:47:51.166Z,8.97
2017-04-07T04:48:31.765Z,8.94
2017-04-07T04:49:12.327Z,8.95
2017-04-07T04:49:52.904Z,8.95
2017-04-07T04:50:33.481Z,8.95
2017-04-07T04:51:14.112Z,8.99
2017-04-07T04:51:54.802Z,8.89
2017-04-07T04:52:35.379Z,8.99
2017-04-07T04:53:15.963Z,8.99
2017-04-07T04:53:56.557Z,8.99
2017-04-07T04:54:37.152Z,8.94
2017-04-07T04:55:17.810Z,8.97
2017-04-07T04:55:58.448Z,8.99
2017-04-07T04:56:39.013Z,8.99
2017-04-07T04:57:19.595Z,9
2017-04-07T04:58:00.178Z,8.95
2017-04-07T04:58:40.746Z,8.94
2017-04-07T04:59:21.321Z,8.95
2017-04-07T05:00:02.770Z,8.99
2017-04-07T05:00:43.354Z,9.06
2017-04-07T05:01:23.937Z,8.99
2017-04-07T05:02:04.561Z,8.95
2017-04-07T05:02:45.128Z,9.1
2017-04-07T05:03:25.695Z,8.94
2017-04-07T05:04:06.266Z,8.94
2017-04-07T05:04:46.856Z,8.92
2017-04-07T05:05:27.445Z,8.95
2017-04-07T05:06:08.032Z,8.99
2017-04-07T05:06:48.610Z,9.03
2017-04-07T05:07:29.183Z,8.99
2017-04-07T05:08:10.190Z,9.11
2017-04-07T05:08:50.762Z,8.99
2017-04-07T05:09:31.325Z,9.03
2017-04-07T05:10:11.893Z,8.97
2017-04-07T05:10:53.152Z,9.03
2017-04-07T05:11:34.221Z,9.1
2017-04-07T05:12:14.856Z,9.13
2017-04-07T05:12:55.426Z,9
2017-04-07T05:13:36.025Z,9.06
2017-04-07T05:14:16.602Z,9.02
2017-04-07T05:14:57.175Z,9.11
2017-04-07T05:15:37.754Z,9.11
2017-04-07T05:16:18.332Z,9.08
2017-04-07T05:16:58.964Z,9.1
2017-04-07T05:17:39.561Z,9.13
2017-04-07T05:18:20.204Z,9.13
2017-04-07T05:19:00.795Z,9.08
2017-04-07T05:19:41.382Z,9.13
2017-04-07T05:20:21.976Z,9.1
2017-04-07T05:21:02.570Z,9.04
2017-04-07T05:21:43.147Z,9.13
2017-04-07T05:22:23.723Z,8.95
2017-04-07T05:23:04.283Z,9.11
2017-04-07T05:23:44.850Z,8.94
2017-04-07T05:24:25.432Z,9.11
2017-04-07T05:25:06.038Z,9.08
2017-04-07T05:25:46.595Z,9.1
2017-04-07T05:26:27.198Z,8.97
2017-04-07T05:27:07.799Z,9.1
2017-04-07T05:27:48.393Z,8.92
2017-04-07T05:28:28.975Z,8.97
2017-04-07T05:29:09.558Z,8.99
2017-04-07T05:29:50.135Z,9.04
2017-04-07T05:30:30.755Z,8.97
2017-04-07T05:31:11.331Z,9.04
2017-04-07T05:31:51.902Z,8.95
2017-04-07T05:32:32.485Z,8.95
2017-04-07T05:33:13.056Z,8.95
2017-04-07T05:33:53.669Z,9.04
2017-04-07T05:34:34.239Z,8.95
2017-04-07T05:35:14.819Z,9.08
2017-04-07T05:35:55.403Z,9.03
2017-04-07T05:36:36.007Z,8.95
2017-04-07T05:37:16.563Z,8.95
2017-04-07T05:37:57.133Z,9.1
2017-04-07T05:38:37.695Z,9.11
2017-04-07T05:39:18.262Z,9.21
2017-04-07T05:39:58.835Z,9.22
2017-04-07T05:40:39.403Z,9.13
2017-04-07T05:41:20.011Z,9.04
2017-04-07T05:42:00.616Z,9.1
2017-04-07T05:42:41.223Z,9.11
2017-04-07T05:43:21.823Z,8.99
2017-04-07T05:44:02.427Z,8.91
2017-04-07T05:44:43.023Z,8.95
2017-04-07T05:45:23.607Z,8.92
2017-04-07T05:46:04.184Z,8.89
2017-04-07T05:46:44.791Z,8.95
2017-04-07T05:47:25.384Z,8.94
2017-04-07T05:48:05.992Z,8.94
2017-04-07T05:48:46.621Z,8.95
2017-04-07T05:49:27.281Z,8.99
2017-04-07T05:50:07.882Z,9
2017-04-07T05:50:48.505Z,9.04
2017-04-07T05:51:29.080Z,9.11
2017-04-07T05:52:09.645Z,9.13
2017-04-07T05:52:50.216Z,9.1
2017-04-07T05:53:30.791Z,9.1
2017-04-07T05:54:11.368Z,9.03
2017-04-07T05:54:51.941Z,8.97
2017-04-07T05:55:32.506Z,9.1
2017-04-07T05:56:13.083Z,9.1
2017-04-07T05:56:53.650Z,9.22
2017-04-07T05:57:34.256Z,9.21
2017-04-07T05:58:14.804Z,9.22
2017-04-07T05:58:55.384Z,9.21
2017-04-07T05:59:36.029Z,9.19
2017-04-07T06:00:16.617Z,9.21
2017-04-07T06:00:57.270Z,9.16
2017-04-07T06:01:37.852Z,9.11
2017-04-07T06:02:18.437Z,9.1
2017-04-07T06:02:59.014Z,9.1
2017-04-07T06:03:39.591Z,9.11
2017-04-07T06:04:20.181Z,8.97
2017-04-07T06:05:00.773Z,8.92
2017-04-07T06:05:41.351Z,8.97
2017-04-07T06:06:21.944Z,8.95
2017-04-07T06:07:02.529Z,8.94
2017-04-07T06:07:43.100Z,8.95
2017-04-07T06:08:23.686Z,8.89
2017-04-07T06:09:04.284Z,8.97
2017-04-07T06:09:44.889Z,9.02
2017-04-07T06:10:25.489Z,8.95
2017-04-07T06:11:06.080Z,8.94
2017-04-07T06:11:46.703Z,8.97
2017-04-07T06:12:27.297Z,8.94
2017-04-07T06:13:07.907Z,8.99
2017-04-07T06:13:48.503Z,8.99
2017-04-07T06:14:29.091Z,8.99
2017-04-07T06:15:09.721Z,8.92
2017-04-07T06:15:50.336Z,8.95
2017-04-07T06:16:30.917Z,8.91
2017-04-07T06:17:11.490Z,8.89
2017-04-07T06:17:52.129Z,8.88
2017-04-07T06:18:32.977Z,8.89
2017-04-07T06:19:13.550Z,8.91
2017-04-07T06:19:54.146Z,8.84
2017-04-07T06:20:34.739Z,8.91
2017-04-07T06:21:15.737Z,8.89
2017-04-07T06:21:56.310Z,8.84
2017-04-07T06:22:36.994Z,8.84
2017-04-07T06:23:17.593Z,8.79
2017-04-07T06:23:59.082Z,8.85
2017-04-07T06:24:39.607Z,8.78
2017-04-07T06:25:20.208Z,8.79
2017-04-07T06:26:00.831Z,8.71
2017-04-07T06:26:41.528Z,8.67
2017-04-07T06:27:22.105Z,8.78
2017-04-07T06:28:02.674Z,8.64
2017-04-07T06:28:43.245Z,8.78
2017-04-07T06:29:23.830Z,8.69
2017-04-07T06:30:04.401Z,8.64
2017-04-07T06:30:44.972Z,8.64
2017-04-07T06:31:25.564Z,8.66
2017-04-07T06:32:06.141Z,8.76
2017-04-07T06:32:46.727Z,8.73
2017-04-07T06:33:27.316Z,8.81
2017-04-07T06:34:07.889Z,8.78
2017-04-07T06:34:48.725Z,8.74
2017-04-07T06:35:29.120Z,8.78
2017-04-07T06:36:09.709Z,8.71
2017-04-07T06:36:50.299Z,8.64
2017-04-07T06:37:30.965Z,8.76
2017-04-07T06:38:11.546Z,8.7
2017-04-07T06:38:52.119Z,8.69
2017-04-07T06:39:32.709Z,8.63
2017-04-07T06:40:13.282Z,8.66
2017-04-07T06:40:53.854Z,8.61
2017-04-07T06:41:34.448Z,8.67
2017-04-07T06:42:15.034Z,8.64
2017-04-07T06:42:55.624Z,8.66
2017-04-07T06:43:36.250Z,8.7
2017-04-07T06:44:16.842Z,8.73
2017-04-07T06:44:57.428Z,8.66
2017-04-07T06:45:38.330Z,8.66
2017-04-07T06:46:19.857Z,8.61
2017-04-07T06:47:00.684Z,8.6
2017-04-07T06:47:41.322Z,8.6
2017-04-07T06:48:21.856Z,8.64
2017-04-07T06:49:02.481Z,8.61
2017-04-07T06:49:43.026Z,8.66
2017-04-07T06:50:23.606Z,8.63
2017-04-07T06:51:04.179Z,8.6
2017-04-07T06:51:44.781Z,8.61
2017-04-07T06:52:25.536Z,8.53
2017-04-07T06:53:06.197Z,8.51
2017-04-07T06:53:55.384Z,8.53
2017-04-07T06:54:36.027Z,8.48
2017-04-07T06:55:16.674Z,8.53
2017-04-07T06:55:57.301Z,8.53
2017-04-07T06:56:37.915Z,8.58
2017-04-07T06:57:18.722Z,8.58
2017-04-07T06:57:59.312Z,8.6
2017-04-07T06:58:39.888Z,8.6
2017-04-07T06:59:20.568Z,8.66
2017-04-07T07:00:01.114Z,8.7
2017-04-07T07:00:41.753Z,8.63
2017-04-07T07:01:22.343Z,8.61
2017-04-07T07:02:02.909Z,8.63
2017-04-07T07:02:43.486Z,8.63
2017-04-07T07:03:24.057Z,8.64
2017-04-07T07:04:04.762Z,8.69
2017-04-07T07:04:45.376Z,8.63
2017-04-07T07:05:25.974Z,8.78
2017-04-07T07:06:06.656Z,8.74
2017-04-07T07:06:47.288Z,8.7
2017-04-07T07:07:27.945Z,8.78
2017-04-07T07:08:08.545Z,8.73
2017-04-07T07:08:49.128Z,8.74
2017-04-07T07:09:29.753Z,8.76
2017-04-07T07:10:10.372Z,8.76
2017-04-07T07:10:50.951Z,8.74
2017-04-07T07:11:31.547Z,8.74
2017-04-07T07:12:12.151Z,8.76
2017-04-07T07:12:52.796Z,8.76
2017-04-07T07:13:33.382Z,8.78
2017-04-07T07:14:13.977Z,8.82
2017-04-07T07:14:54.566Z,8.84
2017-04-07T07:15:35.186Z,8.84
2017-04-07T07:16:15.758Z,8.88
2017-04-07T07:16:56.332Z,8.91
2017-04-07T07:17:36.979Z,8.94
2017-04-07T07:18:17.625Z,8.89
2017-04-07T07:18:58.224Z,8.89
2017-04-07T07:19:38.804Z,8.89
2017-04-07T07:20:19.377Z,8.92
2017-04-07T07:20:59.955Z,8.94
2017-04-07T07:21:40.805Z,8.95
2017-04-07T07:22:21.331Z,8.94
2017-04-07T07:23:01.912Z,8.95
2017-04-07T07:23:42.546Z,8.91
2017-04-07T07:24:23.137Z,8.89
2017-04-07T07:25:03.732Z,8.92
2017-04-07T07:25:44.333Z,8.85
2017-04-07T07:26:25.060Z,8.91
2017-04-07T07:27:05.656Z,8.88
2017-04-07T07:27:46.302Z,8.91
2017-04-07T07:28:26.922Z,8.89
2017-04-07T07:29:07.559Z,8.94
2017-04-07T07:29:48.170Z,8.85
2017-04-07T07:30:28.763Z,8.97
2017-04-07T07:31:09.357Z,8.94
2017-04-07T07:31:49.981Z,8.89
2017-04-07T07:32:30.563Z,9
2017-04-07T07:33:11.149Z,8.97
2017-04-07T07:33:51.719Z,8.95
2017-04-07T07:34:32.387Z,8.97
2017-04-07T07:35:12.978Z,8.88
2017-04-07T07:35:53.570Z,8.94
2017-04-07T07:36:34.195Z,8.91
2017-04-07T07:37:14.772Z,8.94
2017-04-07T07:37:55.400Z,9
2017-04-07T07:38:35.973Z,8.95
2017-04-07T07:39:16.622Z,8.92
2017-04-07T07:39:57.240Z,8.92
2017-04-07T07:40:37.830Z,8.91
2017-04-07T07:41:18.419Z,8.91
2017-04-07T07:41:58.991Z,8.91
2017-04-07T07:42:39.856Z,9
2017-04-07T07:43:20.320Z,9.08
2017-04-07T07:44:00.916Z,9.06
2017-04-07T07:44:41.528Z,9.1
2017-04-07T07:45:22.116Z,9.23
2017-04-07T07:46:02.720Z,9.16
2017-04-07T07:46:43.381Z,9.19
2017-04-07T07:47:23.963Z,9.31
2017-04-07T07:48:04.567Z,9.32
2017-04-07T07:48:45.166Z,9.22
2017-04-07T07:49:25.749Z,9.19
2017-04-07T07:50:06.360Z,9.19
2017-04-07T07:50:46.956Z,9.23
2017-04-07T07:51:27.593Z,9.23
2017-04-07T07:52:08.190Z,9.19
2017-04-07T07:52:48.855Z,9.25
2017-04-07T07:53:29.412Z,9.22
2017-04-07T07:54:10.035Z,9.22
2017-04-07T07:54:50.658Z,9.18
2017-04-07T07:55:31.290Z,9.22
2017-04-07T07:56:11.904Z,9.22
2017-04-07T07:56:52.578Z,9.16
2017-04-07T07:57:33.263Z,9.25
2017-04-07T07:58:13.892Z,9.23
2017-04-07T07:58:54.504Z,9.21
2017-04-07T07:59:35.104Z,9.31
2017-04-07T08:00:15.718Z,9.29
2017-04-07T08:00:56.477Z,9.31
2017-04-07T08:01:37.247Z,9.28
2017-04-07T08:02:18.695Z,9.32
2017-04-07T08:02:59.373Z,9.28
2017-04-07T08:03:40.014Z,9.31
2017-04-07T08:04:20.675Z,9.39
2017-04-07T08:05:01.418Z,9.36
2017-04-07T08:05:42.033Z,9.36
2017-04-07T08:06:22.664Z,9.36
2017-04-07T08:07:03.333Z,9.31
2017-04-07T08:07:43.914Z,9.32
2017-04-07T08:08:24.575Z,9.32
2017-04-07T08:09:05.176Z,9.44
2017-04-07T08:09:45.870Z,9.36
2017-04-07T08:10:26.447Z,9.36
2017-04-07T08:11:07.034Z,9.31
2017-04-07T08:11:48.580Z,9.22
2017-04-07T08:12:28.321Z,9.25
2017-04-07T08:13:08.904Z,9.22
2017-04-07T08:13:49.517Z,9.22
2017-04-07T08:14:30.245Z,9.19
2017-04-07T08:15:10.823Z,9.26
2017-04-07T08:15:51.550Z,9.29
2017-04-07T08:16:32.159Z,9.32
2017-04-07T08:17:12.731Z,9.37
2017-04-07T08:17:53.300Z,9.4
2017-04-07T08:18:33.888Z,9.39
2017-04-07T08:19:14.471Z,9.4
2017-04-07T08:19:55.071Z,9.46
2017-04-07T08:20:35.718Z,9.44
2017-04-07T08:21:16.301Z,9.41
2017-04-07T08:21:56.875Z,9.44
2017-04-07T08:22:37.466Z,9.37
2017-04-07T08:23:18.206Z,9.39
2017-04-07T08:23:58.753Z,9.39
2017-04-07T08:24:39.332Z,9.28
2017-04-07T08:25:19.930Z,9.29
2017-04-07T08:26:00.519Z,9.31
2017-04-07T08:26:41.094Z,9.28
2017-04-07T08:27:21.920Z,9.34
2017-04-07T08:28:02.602Z,9.37
2017-04-07T08:28:43.267Z,9.39
2017-04-07T08:29:24.010Z,9.46
2017-04-07T08:30:05.006Z,9.48
2017-04-07T08:30:45.919Z,9.48
2017-04-07T08:31:26.280Z,9.46
2017-04-07T08:32:06.866Z,9.54
2017-04-07T08:32:47.452Z,9.55
2017-04-07T08:33:28.070Z,9.54
2017-04-07T08:34:08.705Z,9.56
2017-04-07T08:34:49.390Z,9.46
2017-04-07T08:35:30.023Z,9.39
2017-04-07T08:36:10.577Z,9.43
2017-04-07T08:36:51.229Z,9.46
2017-04-07T08:37:31.811Z,9.44
2017-04-07T08:43:56.549Z,9.51
2017-04-07T08:44:37.122Z,9.5
2017-04-07T08:45:17.715Z,9.62
2017-04-07T08:45:58.285Z,9.58
2017-04-07T08:46:38.922Z,9.65
2017-04-07T08:47:19.514Z,9.65
2017-04-07T08:48:00.089Z,9.61
2017-04-07T08:48:40.687Z,9.65
2017-04-07T08:49:21.254Z,9.59
2017-04-07T08:50:01.868Z,9.68
2017-04-07T08:50:42.431Z,9.59
2017-04-07T08:51:23.007Z,9.62
2017-04-07T08:52:03.593Z,9.65
2017-04-07T08:52:44.172Z,9.65
2017-04-07T08:53:24.778Z,9.72
2017-04-07T08:54:05.410Z,9.65
2017-04-07T08:54:45.974Z,9.62
2017-04-07T08:55:26.558Z,9.72
2017-04-07T08:56:07.151Z,9.65
2017-04-07T08:56:47.755Z,9.62
2017-04-07T08:57:28.368Z,9.62
2017-04-07T08:58:09.009Z,9.59
2017-04-07T08:58:49.591Z,9.62
2017-04-07T08:59:30.168Z,9.5
2017-04-07T09:00:10.747Z,9.46
2017-04-07T09:00:51.328Z,9.51
2017-04-07T09:01:31.926Z,9.55
2017-04-07T09:02:12.538Z,9.56
2017-04-07T09:02:53.157Z,9.51
2017-04-07T09:03:33.775Z,9.48
2017-04-07T09:04:14.371Z,9.61
2017-04-07T09:04:54.981Z,9.62
2017-04-07T09:05:35.588Z,9.66
2017-04-07T09:06:16.223Z,9.66
2017-04-07T09:06:56.821Z,9.69
2017-04-07T09:07:37.391Z,9.61
2017-04-07T09:08:17.985Z,9.69